sensor_id;sensor_type;location;lat;lon;timestamp;P1;P2;P0
50321;PMS5003;36227;53.366;-1.426;2023-05-07T00:48:21;22;22;
50321;PMS5003;36227;53.366;-1.426;2023-05-07T00:50:46;18;16;
50321;PMS5003;36227;53.366;-1.426;2023-05-07T00:53:11;27;25;
50321;PMS5003;36227;53.366;-1.426;2023-05-07T00:55:36;25;20;
50321;PMS5003;36227;53.366;-1.426;2023-05-07T00:58:02;19;19;
50321;PMS5003;36227;53.366;-1.426;2023-05-07T01:00:28;21;17;
50321;PMS5003;36227;53.366;-1.426;2023-05-07T01:02:53;24;21;
50321;PMS5003;36227;53.366;-1.426;2023-05-07T01:05:19;22;20;
50321;PMS5003;36227;53.366;-1.426;2023-05-07T01:07:44;24;22;
50321;PMS5003;36227;53.366;-1.426;2023-05-07T01:10:09;18;17;
50321;PMS5003;36227;53.366;-1.426;2023-05-07T01:12:35;21;18;
50321;PMS5003;36227;53.366;-1.426;2023-05-07T01:15:00;26;23;
50321;PMS5003;36227;53.366;-1.426;2023-05-07T01:17:26;19;18;
50321;PMS5003;36227;53.366;-1.426;2023-05-07T01:19:51;21;21;
50321;PMS5003;36227;53.366;-1.426;2023-05-07T01:22:16;21;20;
50321;PMS5003;36227;53.366;-1.426;2023-05-07T01:24:41;25;22;
50321;PMS5003;36227;53.366;-1.426;2023-05-07T01:27:07;24;24;
50321;PMS5003;36227;53.366;-1.426;2023-05-07T01:29:32;22;22;
50321;PMS5003;36227;53.366;-1.426;2023-05-07T01:31:58;18;16;
50321;PMS5003;36227;53.366;-1.426;2023-05-07T01:34:23;22;19;
50321;PMS5003;36227;53.366;-1.426;2023-05-07T02:18:02;23;20;
50321;PMS5003;36227;53.366;-1.426;2023-05-07T02:20:27;28;24;
50321;PMS5003;36227;53.366;-1.426;2023-05-07T02:22:53;20;20;
50321;PMS5003;36227;53.366;-1.426;2023-05-07T02:25:18;21;21;
50321;PMS5003;36227;53.366;-1.426;2023-05-07T02:27:43;24;21;
50321;PMS5003;36227;53.366;-1.426;2023-05-07T02:30:08;23;21;
50321;PMS5003;36227;53.366;-1.426;2023-05-07T02:32:33;25;24;
50321;PMS5003;36227;53.366;-1.426;2023-05-07T02:34:58;27;25;
50321;PMS5003;36227;53.366;-1.426;2023-05-07T03:06:34;31;26;
50321;PMS5003;36227;53.366;-1.426;2023-05-07T03:08:59;20;19;
50321;PMS5003;36227;53.366;-1.426;2023-05-07T03:11:24;22;21;
50321;PMS5003;36227;53.366;-1.426;2023-05-07T03:13:50;21;21;
50321;PMS5003;36227;53.366;-1.426;2023-05-07T03:16:15;27;25;
50321;PMS5003;36227;53.366;-1.426;2023-05-07T03:18:41;23;20;
50321;PMS5003;36227;53.366;-1.426;2023-05-07T03:21:07;20;18;
50321;PMS5003;36227;53.366;-1.426;2023-05-07T03:23:32;27;26;
50321;PMS5003;36227;53.366;-1.426;2023-05-07T03:25:57;30;26;
50321;PMS5003;36227;53.366;-1.426;2023-05-07T03:28:26;30;27;
50321;PMS5003;36227;53.366;-1.426;2023-05-07T03:30:56;28;23;
50321;PMS5003;36227;53.366;-1.426;2023-05-07T03:33:13;29;28;
50321;PMS5003;36227;53.366;-1.426;2023-05-07T03:35:39;29;27;
50321;PMS5003;36227;53.366;-1.426;2023-05-07T03:38:07;31;28;
50321;PMS5003;36227;53.366;-1.426;2023-05-07T03:40:31;32;28;
50321;PMS5003;36227;53.366;-1.426;2023-05-07T03:42:56;26;23;
50321;PMS5003;36227;53.366;-1.426;2023-05-07T04:12:09;23;21;
50321;PMS5003;36227;53.366;-1.426;2023-05-07T04:14:30;17;17;
50321;PMS5003;36227;53.366;-1.426;2023-05-07T04:16:52;30;26;
50321;PMS5003;36227;53.366;-1.426;2023-05-07T04:19:18;26;24;
50321;PMS5003;36227;53.366;-1.426;2023-05-07T04:21:43;24;24;
50321;PMS5003;36227;53.366;-1.426;2023-05-07T04:24:08;22;22;
50321;PMS5003;36227;53.366;-1.426;2023-05-07T04:26:33;23;22;
50321;PMS5003;36227;53.366;-1.426;2023-05-07T04:28:58;19;18;
50321;PMS5003;36227;53.366;-1.426;2023-05-07T04:31:24;23;20;
50321;PMS5003;36227;53.366;-1.426;2023-05-07T04:33:49;24;23;
50321;PMS5003;36227;53.366;-1.426;2023-05-07T04:36:15;34;28;
50321;PMS5003;36227;53.366;-1.426;2023-05-07T04:38:41;30;28;
50321;PMS5003;36227;53.366;-1.426;2023-05-07T04:41:08;30;27;
50321;PMS5003;36227;53.366;-1.426;2023-05-07T04:43:32;29;27;
50321;PMS5003;36227;53.366;-1.426;2023-05-07T04:45:57;33;29;
50321;PMS5003;36227;53.366;-1.426;2023-05-07T04:48:22;29;27;
50321;PMS5003;36227;53.366;-1.426;2023-05-07T04:50:48;32;28;
50321;PMS5003;36227;53.366;-1.426;2023-05-07T04:53:13;28;26;
50321;PMS5003;36227;53.366;-1.426;2023-05-07T04:55:39;28;25;
50321;PMS5003;36227;53.366;-1.426;2023-05-07T04:58:05;22;18;
50321;PMS5003;36227;53.366;-1.426;2023-05-07T05:00:29;20;17;
50321;PMS5003;36227;53.366;-1.426;2023-05-07T05:02:55;18;17;
50321;PMS5003;36227;53.366;-1.426;2023-05-07T05:05:19;18;13;
50321;PMS5003;36227;53.366;-1.426;2023-05-07T05:10:10;14;14;
50321;PMS5003;36227;53.366;-1.426;2023-05-07T05:12:36;14;14;
50321;PMS5003;36227;53.366;-1.426;2023-05-07T06:20:21;10;10;
50321;PMS5003;36227;53.366;-1.426;2023-05-07T06:22:47;7;6;
50321;PMS5003;36227;53.366;-1.426;2023-05-07T06:25:11;9;9;
50321;PMS5003;36227;53.366;-1.426;2023-05-07T06:27:37;11;10;
50321;PMS5003;36227;53.366;-1.426;2023-05-07T06:30:02;9;9;
50321;PMS5003;36227;53.366;-1.426;2023-05-07T06:32:27;10;8;
50321;PMS5003;36227;53.366;-1.426;2023-05-07T06:34:52;9;9;
50321;PMS5003;36227;53.366;-1.426;2023-05-07T06:37:17;9;9;
50321;PMS5003;36227;53.366;-1.426;2023-05-07T06:39:42;8;8;
50321;PMS5003;36227;53.366;-1.426;2023-05-07T06:42:07;12;11;
50321;PMS5003;36227;53.366;-1.426;2023-05-07T06:44:33;11;11;
50321;PMS5003;36227;53.366;-1.426;2023-05-07T06:46:58;9;9;
50321;PMS5003;36227;53.366;-1.426;2023-05-07T06:49:23;13;12;
50321;PMS5003;36227;53.366;-1.426;2023-05-07T06:51:49;11;10;
50321;PMS5003;36227;53.366;-1.426;2023-05-07T06:54:14;10;10;
50321;PMS5003;36227;53.366;-1.426;2023-05-07T06:56:39;9;9;
50321;PMS5003;36227;53.366;-1.426;2023-05-07T06:59:05;10;10;
50321;PMS5003;36227;53.366;-1.426;2023-05-07T07:01:31;13;12;
50321;PMS5003;36227;53.366;-1.426;2023-05-07T07:03:56;11;11;
50321;PMS5003;36227;53.366;-1.426;2023-05-07T07:06:21;11;9;
50321;PMS5003;36227;53.366;-1.426;2023-05-07T07:08:47;11;11;
50321;PMS5003;36227;53.366;-1.426;2023-05-07T07:11:12;13;13;
50321;PMS5003;36227;53.366;-1.426;2023-05-07T07:13:37;12;11;
50321;PMS5003;36227;53.366;-1.426;2023-05-07T07:16:02;13;13;
50321;PMS5003;36227;53.366;-1.426;2023-05-07T07:18:28;16;16;
50321;PMS5003;36227;53.366;-1.426;2023-05-07T07:20:53;16;15;
50321;PMS5003;36227;53.366;-1.426;2023-05-07T07:23:18;10;10;
50321;PMS5003;36227;53.366;-1.426;2023-05-07T07:25:43;18;17;
50321;PMS5003;36227;53.366;-1.426;2023-05-07T07:28:08;10;10;
50321;PMS5003;36227;53.366;-1.426;2023-05-07T07:30:33;15;13;
50321;PMS5003;36227;53.366;-1.426;2023-05-07T07:32:59;14;12;
50321;PMS5003;36227;53.366;-1.426;2023-05-07T07:35:24;14;12;
50321;PMS5003;36227;53.366;-1.426;2023-05-07T07:37:50;15;15;
50321;PMS5003;36227;53.366;-1.426;2023-05-07T07:40:15;12;12;
50321;PMS5003;36227;53.366;-1.426;2023-05-07T07:42:40;18;17;
50321;PMS5003;36227;53.366;-1.426;2023-05-07T07:45:07;14;13;
50321;PMS5003;36227;53.366;-1.426;2023-05-07T07:47:32;12;11;
50321;PMS5003;36227;53.366;-1.426;2023-05-07T07:49:57;15;15;
50321;PMS5003;36227;53.366;-1.426;2023-05-07T07:52:23;15;13;
50321;PMS5003;36227;53.366;-1.426;2023-05-07T07:54:48;18;16;
50321;PMS5003;36227;53.366;-1.426;2023-05-07T07:57:14;14;13;
50321;PMS5003;36227;53.366;-1.426;2023-05-07T07:59:39;18;17;
50321;PMS5003;36227;53.366;-1.426;2023-05-07T08:02:05;14;14;
50321;PMS5003;36227;53.366;-1.426;2023-05-07T08:04:29;13;13;
50321;PMS5003;36227;53.366;-1.426;2023-05-07T08:06:55;11;11;
50321;PMS5003;36227;53.366;-1.426;2023-05-07T08:09:21;15;14;
50321;PMS5003;36227;53.366;-1.426;2023-05-07T08:11:46;18;17;
50321;PMS5003;36227;53.366;-1.426;2023-05-07T08:14:11;15;13;
50321;PMS5003;36227;53.366;-1.426;2023-05-07T08:16:36;15;14;
50321;PMS5003;36227;53.366;-1.426;2023-05-07T08:19:02;13;11;
50321;PMS5003;36227;53.366;-1.426;2023-05-07T08:21:28;16;14;
50321;PMS5003;36227;53.366;-1.426;2023-05-07T08:23:53;17;15;
50321;PMS5003;36227;53.366;-1.426;2023-05-07T08:26:18;19;18;
50321;PMS5003;36227;53.366;-1.426;2023-05-07T08:28:44;15;14;
50321;PMS5003;36227;53.366;-1.426;2023-05-07T08:31:09;13;13;
50321;PMS5003;36227;53.366;-1.426;2023-05-07T08:33:34;9;9;
50321;PMS5003;36227;53.366;-1.426;2023-05-07T08:35:59;12;11;
50321;PMS5003;36227;53.366;-1.426;2023-05-07T08:38:25;14;14;
50321;PMS5003;36227;53.366;-1.426;2023-05-07T08:40:50;14;13;
50321;PMS5003;36227;53.366;-1.426;2023-05-07T08:43:16;12;10;
50321;PMS5003;36227;53.366;-1.426;2023-05-07T08:45:41;7;7;
50321;PMS5003;36227;53.366;-1.426;2023-05-07T08:48:08;8;8;
50321;PMS5003;36227;53.366;-1.426;2023-05-07T08:50:31;6;6;
50321;PMS5003;36227;53.366;-1.426;2023-05-07T08:52:56;9;8;
50321;PMS5003;36227;53.366;-1.426;2023-05-07T08:55:21;10;9;
50321;PMS5003;36227;53.366;-1.426;2023-05-07T08:57:47;10;10;
50321;PMS5003;36227;53.366;-1.426;2023-05-07T09:00:13;11;9;
50321;PMS5003;36227;53.366;-1.426;2023-05-07T09:02:37;11;10;
50321;PMS5003;36227;53.366;-1.426;2023-05-07T09:05:03;9;9;
50321;PMS5003;36227;53.366;-1.426;2023-05-07T09:07:28;7;7;
50321;PMS5003;36227;53.366;-1.426;2023-05-07T09:09:53;7;7;
50321;PMS5003;36227;53.366;-1.426;2023-05-07T09:12:19;12;9;
50321;PMS5003;36227;53.366;-1.426;2023-05-07T09:14:45;12;11;
50321;PMS5003;36227;53.366;-1.426;2023-05-07T09:17:10;10;8;
50321;PMS5003;36227;53.366;-1.426;2023-05-07T09:19:35;6;6;
50321;PMS5003;36227;53.366;-1.426;2023-05-07T09:22:00;7;7;
50321;PMS5003;36227;53.366;-1.426;2023-05-07T09:24:25;9;8;
50321;PMS5003;36227;53.366;-1.426;2023-05-07T09:26:51;7;7;
50321;PMS5003;36227;53.366;-1.426;2023-05-07T09:29:16;6;6;
50321;PMS5003;36227;53.366;-1.426;2023-05-07T09:31:41;8;7;
50321;PMS5003;36227;53.366;-1.426;2023-05-07T09:34:06;5;5;
50321;PMS5003;36227;53.366;-1.426;2023-05-07T09:36:32;7;6;
50321;PMS5003;36227;53.366;-1.426;2023-05-07T09:38:59;7;7;
50321;PMS5003;36227;53.366;-1.426;2023-05-07T09:41:22;6;6;
50321;PMS5003;36227;53.366;-1.426;2023-05-07T09:43:47;8;8;
50321;PMS5003;36227;53.366;-1.426;2023-05-07T09:46:13;8;8;
50321;PMS5003;36227;53.366;-1.426;2023-05-07T09:48:39;9;8;
50321;PMS5003;36227;53.366;-1.426;2023-05-07T09:51:03;10;10;
50321;PMS5003;36227;53.366;-1.426;2023-05-07T09:53:29;10;10;
50321;PMS5003;36227;53.366;-1.426;2023-05-07T09:55:53;9;9;
50321;PMS5003;36227;53.366;-1.426;2023-05-07T09:58:19;10;10;
50321;PMS5003;36227;53.366;-1.426;2023-05-07T10:00:44;10;10;
50321;PMS5003;36227;53.366;-1.426;2023-05-07T10:03:09;8;8;
50321;PMS5003;36227;53.366;-1.426;2023-05-07T10:05:34;12;12;
50321;PMS5003;36227;53.366;-1.426;2023-05-07T10:07:59;12;12;
50321;PMS5003;36227;53.366;-1.426;2023-05-07T10:10:25;12;11;
50321;PMS5003;36227;53.366;-1.426;2023-05-07T10:12:50;15;15;
50321;PMS5003;36227;53.366;-1.426;2023-05-07T10:15:15;11;10;
50321;PMS5003;36227;53.366;-1.426;2023-05-07T10:17:41;10;9;
50321;PMS5003;36227;53.366;-1.426;2023-05-07T10:20:07;13;11;
50321;PMS5003;36227;53.366;-1.426;2023-05-07T10:22:32;13;12;
50321;PMS5003;36227;53.366;-1.426;2023-05-07T10:24:57;11;11;
50321;PMS5003;36227;53.366;-1.426;2023-05-07T10:27:22;11;11;
50321;PMS5003;36227;53.366;-1.426;2023-05-07T10:29:49;14;13;
50321;PMS5003;36227;53.366;-1.426;2023-05-07T10:32:19;11;9;
50321;PMS5003;36227;53.366;-1.426;2023-05-07T10:34:39;9;9;
50321;PMS5003;36227;53.366;-1.426;2023-05-07T10:37:03;9;9;
50321;PMS5003;36227;53.366;-1.426;2023-05-07T10:39:28;8;8;
50321;PMS5003;36227;53.366;-1.426;2023-05-07T10:41:53;10;9;
50321;PMS5003;36227;53.366;-1.426;2023-05-07T10:44:25;10;9;
50321;PMS5003;36227;53.366;-1.426;2023-05-07T10:46:44;8;7;
50321;PMS5003;36227;53.366;-1.426;2023-05-07T10:49:09;9;8;
50321;PMS5003;36227;53.366;-1.426;2023-05-07T10:51:35;8;8;
50321;PMS5003;36227;53.366;-1.426;2023-05-07T10:56:25;10;8;
50321;PMS5003;36227;53.366;-1.426;2023-05-07T10:58:50;11;11;
50321;PMS5003;36227;53.366;-1.426;2023-05-07T11:01:15;8;8;
50321;PMS5003;36227;53.366;-1.426;2023-05-07T11:06:08;7;7;
50321;PMS5003;36227;53.366;-1.426;2023-05-07T11:10:56;9;8;
50321;PMS5003;36227;53.366;-1.426;2023-05-07T11:15:46;9;9;
50321;PMS5003;36227;53.366;-1.426;2023-05-07T11:18:11;9;9;
50321;PMS5003;36227;53.366;-1.426;2023-05-07T11:20:45;10;9;
50321;PMS5003;36227;53.366;-1.426;2023-05-07T11:23:02;9;9;
50321;PMS5003;36227;53.366;-1.426;2023-05-07T11:25:27;17;15;
50321;PMS5003;36227;53.366;-1.426;2023-05-07T11:27:52;7;7;
50321;PMS5003;36227;53.366;-1.426;2023-05-07T11:30:17;6;6;
50321;PMS5003;36227;53.366;-1.426;2023-05-07T11:32:42;8;8;
50321;PMS5003;36227;53.366;-1.426;2023-05-07T11:35:08;7;5;
50321;PMS5003;36227;53.366;-1.426;2023-05-07T11:37:32;8;6;
50321;PMS5003;36227;53.366;-1.426;2023-05-07T11:40:03;6;6;
50321;PMS5003;36227;53.366;-1.426;2023-05-07T11:42:27;7;7;
50321;PMS5003;36227;53.366;-1.426;2023-05-07T11:44:49;8;8;
50321;PMS5003;36227;53.366;-1.426;2023-05-07T11:47:17;4;4;
50321;PMS5003;36227;53.366;-1.426;2023-05-07T11:49:38;8;7;
50321;PMS5003;36227;53.366;-1.426;2023-05-07T11:52:04;5;5;
50321;PMS5003;36227;53.366;-1.426;2023-05-07T11:56:55;7;5;
50321;PMS5003;36227;53.366;-1.426;2023-05-07T11:59:19;5;5;
50321;PMS5003;36227;53.366;-1.426;2023-05-07T12:01:45;6;6;
50321;PMS5003;36227;53.366;-1.426;2023-05-07T12:04:09;5;5;
50321;PMS5003;36227;53.366;-1.426;2023-05-07T12:06:36;8;6;
50321;PMS5003;36227;53.366;-1.426;2023-05-07T12:08:59;10;7;
50321;PMS5003;36227;53.366;-1.426;2023-05-07T12:11:25;5;4;
50321;PMS5003;36227;53.366;-1.426;2023-05-07T12:13:49;7;6;
50321;PMS5003;36227;53.366;-1.426;2023-05-07T12:16:15;9;8;
50321;PMS5003;36227;53.366;-1.426;2023-05-07T12:18:40;5;5;
50321;PMS5003;36227;53.366;-1.426;2023-05-07T12:21:05;5;5;
50321;PMS5003;36227;53.366;-1.426;2023-05-07T12:23:30;6;3;
50321;PMS5003;36227;53.366;-1.426;2023-05-07T12:25:55;6;6;
50321;PMS5003;36227;53.366;-1.426;2023-05-07T12:28:20;5;5;
50321;PMS5003;36227;53.366;-1.426;2023-05-07T12:30:46;8;6;
50321;PMS5003;36227;53.366;-1.426;2023-05-07T12:33:10;5;5;
50321;PMS5003;36227;53.366;-1.426;2023-05-07T12:35:36;5;5;
50321;PMS5003;36227;53.366;-1.426;2023-05-07T12:38:00;7;5;
50321;PMS5003;36227;53.366;-1.426;2023-05-07T12:42:52;6;6;
50321;PMS5003;36227;53.366;-1.426;2023-05-07T12:45:16;10;8;
50321;PMS5003;36227;53.366;-1.426;2023-05-07T12:47:43;6;6;
50321;PMS5003;36227;53.366;-1.426;2023-05-07T12:50:07;5;5;
50321;PMS5003;36227;53.366;-1.426;2023-05-07T12:52:32;7;5;
50321;PMS5003;36227;53.366;-1.426;2023-05-07T12:54:57;6;3;
50321;PMS5003;36227;53.366;-1.426;2023-05-07T12:57:22;4;4;
50321;PMS5003;36227;53.366;-1.426;2023-05-07T12:59:47;5;5;
50321;PMS5003;36227;53.366;-1.426;2023-05-07T13:02:12;3;3;
50321;PMS5003;36227;53.366;-1.426;2023-05-07T13:04:37;7;5;
50321;PMS5003;36227;53.366;-1.426;2023-05-07T13:07:02;4;4;
50321;PMS5003;36227;53.366;-1.426;2023-05-07T13:09:27;4;4;
50321;PMS5003;36227;53.366;-1.426;2023-05-07T13:11:53;6;5;
50321;PMS5003;36227;53.366;-1.426;2023-05-07T13:14:18;4;4;
50321;PMS5003;36227;53.366;-1.426;2023-05-07T13:16:43;5;3;
50321;PMS5003;36227;53.366;-1.426;2023-05-07T13:19:08;6;6;
50321;PMS5003;36227;53.366;-1.426;2023-05-07T13:21:33;7;5;
50321;PMS5003;36227;53.366;-1.426;2023-05-07T13:23:58;3;3;
50321;PMS5003;36227;53.366;-1.426;2023-05-07T13:26:23;3;3;
50321;PMS5003;36227;53.366;-1.426;2023-05-07T13:28:48;6;6;
50321;PMS5003;36227;53.366;-1.426;2023-05-07T13:31:13;10;9;
50321;PMS5003;36227;53.366;-1.426;2023-05-07T13:33:39;4;4;
50321;PMS5003;36227;53.366;-1.426;2023-05-07T13:36:04;6;6;
50321;PMS5003;36227;53.366;-1.426;2023-05-07T13:38:29;5;5;
50321;PMS5003;36227;53.366;-1.426;2023-05-07T13:40:54;6;4;
50321;PMS5003;36227;53.366;-1.426;2023-05-07T13:43:19;5;5;
50321;PMS5003;36227;53.366;-1.426;2023-05-07T13:45:44;5;4;
50321;PMS5003;36227;53.366;-1.426;2023-05-07T13:48:09;4;4;
50321;PMS5003;36227;53.366;-1.426;2023-05-07T13:50:34;5;5;
50321;PMS5003;36227;53.366;-1.426;2023-05-07T13:52:59;8;6;
50321;PMS5003;36227;53.366;-1.426;2023-05-07T13:55:24;7;7;
50321;PMS5003;36227;53.366;-1.426;2023-05-07T13:57:54;8;7;
50321;PMS5003;36227;53.366;-1.426;2023-05-07T14:00:14;7;6;
50321;PMS5003;36227;53.366;-1.426;2023-05-07T14:02:40;7;7;
50321;PMS5003;36227;53.366;-1.426;2023-05-07T14:05:05;9;9;
50321;PMS5003;36227;53.366;-1.426;2023-05-07T14:07:30;4;4;
50321;PMS5003;36227;53.366;-1.426;2023-05-07T14:09:55;5;5;
50321;PMS5003;36227;53.366;-1.426;2023-05-07T14:12:20;7;7;
50321;PMS5003;36227;53.366;-1.426;2023-05-07T14:14:45;5;5;
50321;PMS5003;36227;53.366;-1.426;2023-05-07T14:17:10;9;8;
50321;PMS5003;36227;53.366;-1.426;2023-05-07T14:19:35;7;6;
50321;PMS5003;36227;53.366;-1.426;2023-05-07T14:22:00;4;4;
50321;PMS5003;36227;53.366;-1.426;2023-05-07T14:24:25;4;4;
50321;PMS5003;36227;53.366;-1.426;2023-05-07T14:26:50;6;6;
50321;PMS5003;36227;53.366;-1.426;2023-05-07T14:29:15;4;4;
50321;PMS5003;36227;53.366;-1.426;2023-05-07T14:31:40;5;5;
50321;PMS5003;36227;53.366;-1.426;2023-05-07T14:34:05;6;5;
50321;PMS5003;36227;53.366;-1.426;2023-05-07T14:36:30;7;6;
50321;PMS5003;36227;53.366;-1.426;2023-05-07T14:38:56;7;4;
50321;PMS5003;36227;53.366;-1.426;2023-05-07T14:41:21;4;4;
50321;PMS5003;36227;53.366;-1.426;2023-05-07T14:43:46;5;5;
50321;PMS5003;36227;53.366;-1.426;2023-05-07T14:46:11;7;7;
50321;PMS5003;36227;53.366;-1.426;2023-05-07T14:48:36;6;5;
50321;PMS5003;36227;53.366;-1.426;2023-05-07T14:51:01;5;4;
50321;PMS5003;36227;53.366;-1.426;2023-05-07T14:53:26;6;4;
50321;PMS5003;36227;53.366;-1.426;2023-05-07T14:55:51;6;3;
50321;PMS5003;36227;53.366;-1.426;2023-05-07T14:58:16;5;5;
50321;PMS5003;36227;53.366;-1.426;2023-05-07T15:00:41;6;6;
50321;PMS5003;36227;53.366;-1.426;2023-05-07T15:03:07;3;3;
50321;PMS5003;36227;53.366;-1.426;2023-05-07T15:05:32;5;5;
50321;PMS5003;36227;53.366;-1.426;2023-05-07T15:07:56;4;4;
50321;PMS5003;36227;53.366;-1.426;2023-05-07T15:10:21;4;4;
50321;PMS5003;36227;53.366;-1.426;2023-05-07T15:12:47;4;4;
50321;PMS5003;36227;53.366;-1.426;2023-05-07T15:15:12;5;5;
50321;PMS5003;36227;53.366;-1.426;2023-05-07T15:17:37;5;5;
50321;PMS5003;36227;53.366;-1.426;2023-05-07T15:20:02;5;5;
50321;PMS5003;36227;53.366;-1.426;2023-05-07T15:22:27;7;6;
50321;PMS5003;36227;53.366;-1.426;2023-05-07T15:24:52;5;5;
50321;PMS5003;36227;53.366;-1.426;2023-05-07T15:27:17;7;7;
50321;PMS5003;36227;53.366;-1.426;2023-05-07T15:29:42;5;5;
50321;PMS5003;36227;53.366;-1.426;2023-05-07T15:32:07;6;5;
50321;PMS5003;36227;53.366;-1.426;2023-05-07T15:34:32;5;5;
50321;PMS5003;36227;53.366;-1.426;2023-05-07T15:36:57;6;6;
50321;PMS5003;36227;53.366;-1.426;2023-05-07T15:39:22;6;6;
50321;PMS5003;36227;53.366;-1.426;2023-05-07T15:41:47;8;8;
50321;PMS5003;36227;53.366;-1.426;2023-05-07T15:44:13;7;7;
50321;PMS5003;36227;53.366;-1.426;2023-05-07T15:46:38;7;7;
50321;PMS5003;36227;53.366;-1.426;2023-05-07T15:49:03;7;7;
50321;PMS5003;36227;53.366;-1.426;2023-05-07T15:51:28;11;8;
50321;PMS5003;36227;53.366;-1.426;2023-05-07T15:53:53;8;8;
50321;PMS5003;36227;53.366;-1.426;2023-05-07T15:56:18;9;9;
50321;PMS5003;36227;53.366;-1.426;2023-05-07T15:58:44;8;7;
50321;PMS5003;36227;53.366;-1.426;2023-05-07T16:01:08;8;8;
50321;PMS5003;36227;53.366;-1.426;2023-05-07T16:03:33;9;9;
50321;PMS5003;36227;53.366;-1.426;2023-05-07T16:05:59;7;7;
50321;PMS5003;36227;53.366;-1.426;2023-05-07T16:08:24;8;7;
50321;PMS5003;36227;53.366;-1.426;2023-05-07T16:10:49;6;6;
50321;PMS5003;36227;53.366;-1.426;2023-05-07T16:13:14;7;7;
50321;PMS5003;36227;53.366;-1.426;2023-05-07T16:15:39;7;7;
50321;PMS5003;36227;53.366;-1.426;2023-05-07T16:18:04;8;8;
50321;PMS5003;36227;53.366;-1.426;2023-05-07T16:20:29;7;6;
50321;PMS5003;36227;53.366;-1.426;2023-05-07T16:22:55;7;7;
50321;PMS5003;36227;53.366;-1.426;2023-05-07T16:25:19;7;6;
50321;PMS5003;36227;53.366;-1.426;2023-05-07T16:27:44;4;4;
50321;PMS5003;36227;53.366;-1.426;2023-05-07T16:30:10;6;6;
50321;PMS5003;36227;53.366;-1.426;2023-05-07T16:32:34;6;6;
50321;PMS5003;36227;53.366;-1.426;2023-05-07T16:34:59;5;5;
50321;PMS5003;36227;53.366;-1.426;2023-05-07T16:37:25;5;5;
50321;PMS5003;36227;53.366;-1.426;2023-05-07T16:39:50;4;4;
50321;PMS5003;36227;53.366;-1.426;2023-05-07T16:42:15;4;4;
50321;PMS5003;36227;53.366;-1.426;2023-05-07T16:44:40;3;3;
50321;PMS5003;36227;53.366;-1.426;2023-05-07T16:47:05;3;3;
50321;PMS5003;36227;53.366;-1.426;2023-05-07T16:49:30;4;4;
50321;PMS5003;36227;53.366;-1.426;2023-05-07T16:51:55;4;4;
50321;PMS5003;36227;53.366;-1.426;2023-05-07T16:54:20;3;3;
50321;PMS5003;36227;53.366;-1.426;2023-05-07T16:56:45;4;4;
50321;PMS5003;36227;53.366;-1.426;2023-05-07T16:59:10;3;3;
50321;PMS5003;36227;53.366;-1.426;2023-05-07T17:01:35;4;4;
50321;PMS5003;36227;53.366;-1.426;2023-05-07T17:04:00;4;4;
50321;PMS5003;36227;53.366;-1.426;2023-05-07T17:06:25;4;3;
50321;PMS5003;36227;53.366;-1.426;2023-05-07T17:08:51;5;3;
50321;PMS5003;36227;53.366;-1.426;2023-05-07T17:11:16;4;4;
50321;PMS5003;36227;53.366;-1.426;2023-05-07T17:13:41;2;2;
50321;PMS5003;36227;53.366;-1.426;2023-05-07T17:16:06;3;3;
50321;PMS5003;36227;53.366;-1.426;2023-05-07T17:18:31;3;3;
50321;PMS5003;36227;53.366;-1.426;2023-05-07T17:20:56;5;5;
50321;PMS5003;36227;53.366;-1.426;2023-05-07T17:23:21;4;3;
50321;PMS5003;36227;53.366;-1.426;2023-05-07T17:25:46;3;3;
50321;PMS5003;36227;53.366;-1.426;2023-05-07T17:28:11;4;4;
50321;PMS5003;36227;53.366;-1.426;2023-05-07T17:30:36;6;6;
50321;PMS5003;36227;53.366;-1.426;2023-05-07T17:33:01;4;4;
50321;PMS5003;36227;53.366;-1.426;2023-05-07T17:35:26;5;5;
50321;PMS5003;36227;53.366;-1.426;2023-05-07T17:37:51;3;3;
50321;PMS5003;36227;53.366;-1.426;2023-05-07T17:40:17;3;3;
50321;PMS5003;36227;53.366;-1.426;2023-05-07T17:42:41;5;4;
50321;PMS5003;36227;53.366;-1.426;2023-05-07T17:45:07;5;5;
50321;PMS5003;36227;53.366;-1.426;2023-05-07T17:47:32;5;5;
50321;PMS5003;36227;53.366;-1.426;2023-05-07T17:49:57;4;4;
50321;PMS5003;36227;53.366;-1.426;2023-05-07T17:52:22;4;4;
50321;PMS5003;36227;53.366;-1.426;2023-05-07T17:54:47;4;4;
50321;PMS5003;36227;53.366;-1.426;2023-05-07T17:57:12;3;3;
50321;PMS5003;36227;53.366;-1.426;2023-05-07T17:59:38;4;3;
50321;PMS5003;36227;53.366;-1.426;2023-05-07T18:02:03;5;5;
50321;PMS5003;36227;53.366;-1.426;2023-05-07T18:04:28;4;4;
50321;PMS5003;36227;53.366;-1.426;2023-05-07T18:06:53;2;2;
50321;PMS5003;36227;53.366;-1.426;2023-05-07T18:09:18;4;4;
50321;PMS5003;36227;53.366;-1.426;2023-05-07T18:11:43;4;3;
50321;PMS5003;36227;53.366;-1.426;2023-05-07T18:14:08;5;4;
50321;PMS5003;36227;53.366;-1.426;2023-05-07T18:16:33;4;4;
50321;PMS5003;36227;53.366;-1.426;2023-05-07T18:18:58;6;5;
50321;PMS5003;36227;53.366;-1.426;2023-05-07T18:21:23;3;3;
50321;PMS5003;36227;53.366;-1.426;2023-05-07T18:23:48;6;6;
50321;PMS5003;36227;53.366;-1.426;2023-05-07T18:26:14;19;17;
50321;PMS5003;36227;53.366;-1.426;2023-05-07T18:28:39;8;8;
50321;PMS5003;36227;53.366;-1.426;2023-05-07T18:31:04;13;13;
50321;PMS5003;36227;53.366;-1.426;2023-05-07T18:33:29;10;9;
50321;PMS5003;36227;53.366;-1.426;2023-05-07T18:35:54;4;4;
50321;PMS5003;36227;53.366;-1.426;2023-05-07T18:38:19;5;5;
50321;PMS5003;36227;53.366;-1.426;2023-05-07T18:40:45;5;4;
50321;PMS5003;36227;53.366;-1.426;2023-05-07T18:43:10;4;2;
50321;PMS5003;36227;53.366;-1.426;2023-05-07T18:45:35;4;4;
50321;PMS5003;36227;53.366;-1.426;2023-05-07T18:48:00;8;6;
50321;PMS5003;36227;53.366;-1.426;2023-05-07T18:50:25;7;7;
50321;PMS5003;36227;53.366;-1.426;2023-05-07T18:52:50;6;6;
50321;PMS5003;36227;53.366;-1.426;2023-05-07T18:55:15;5;5;
50321;PMS5003;36227;53.366;-1.426;2023-05-07T18:57:40;6;6;
50321;PMS5003;36227;53.366;-1.426;2023-05-07T19:00:06;12;11;
50321;PMS5003;36227;53.366;-1.426;2023-05-07T19:02:32;5;5;
50321;PMS5003;36227;53.366;-1.426;2023-05-07T19:04:57;8;7;
50321;PMS5003;36227;53.366;-1.426;2023-05-07T19:07:22;7;7;
50321;PMS5003;36227;53.366;-1.426;2023-05-07T19:09:48;15;14;
50321;PMS5003;36227;53.366;-1.426;2023-05-07T19:12:13;15;13;
50321;PMS5003;36227;53.366;-1.426;2023-05-07T19:14:38;10;9;
50321;PMS5003;36227;53.366;-1.426;2023-05-07T19:17:03;17;15;
50321;PMS5003;36227;53.366;-1.426;2023-05-07T19:19:28;13;12;
50321;PMS5003;36227;53.366;-1.426;2023-05-07T19:21:54;14;14;
50321;PMS5003;36227;53.366;-1.426;2023-05-07T19:24:20;16;15;
50321;PMS5003;36227;53.366;-1.426;2023-05-07T19:26:46;21;21;
50321;PMS5003;36227;53.366;-1.426;2023-05-07T19:29:11;10;9;
50321;PMS5003;36227;53.366;-1.426;2023-05-07T19:31:36;9;9;
50321;PMS5003;36227;53.366;-1.426;2023-05-07T19:34:01;8;7;
50321;PMS5003;36227;53.366;-1.426;2023-05-07T19:36:26;9;9;
50321;PMS5003;36227;53.366;-1.426;2023-05-07T19:38:51;9;7;
50321;PMS5003;36227;53.366;-1.426;2023-05-07T19:41:17;7;7;
50321;PMS5003;36227;53.366;-1.426;2023-05-07T19:43:42;28;26;
50321;PMS5003;36227;53.366;-1.426;2023-05-07T19:46:07;38;37;
50321;PMS5003;36227;53.366;-1.426;2023-05-07T19:48:32;69;58;
50321;PMS5003;36227;53.366;-1.426;2023-05-07T19:50:58;22;22;
50321;PMS5003;36227;53.366;-1.426;2023-05-07T19:53:23;45;39;